sensor_id;sensor_type;location;lat;lon;timestamp;P1;durP1;ratioP1;P2;durP2;ratioP2
48205;SDS011;33995;48.202;16.260;2023-09-19T00:02:10;2.43;;;0.60;;
48205;SDS011;33995;48.202;16.260;2023-09-19T00:04:42;1.90;;;0.80;;
48205;SDS011;33995;48.202;16.260;2023-09-19T00:07:18;2.33;;;0.70;;
48205;SDS011;33995;48.202;16.260;2023-09-19T00:09:54;1.10;;;0.80;;
48205;SDS011;33995;48.202;16.260;2023-09-19T00:12:26;1.57;;;0.77;;
48205;SDS011;33995;48.202;16.260;2023-09-19T00:15:00;1.30;;;0.70;;
48205;SDS011;33995;48.202;16.260;2023-09-19T00:17:32;1.80;;;0.90;;
48205;SDS011;33995;48.202;16.260;2023-09-19T00:20:05;2.43;;;1.00;;
48205;SDS011;33995;48.202;16.260;2023-09-19T00:22:51;1.40;;;0.70;;
48205;SDS011;33995;48.202;16.260;2023-09-19T00:25:20;1.30;;;0.77;;
48205;SDS011;33995;48.202;16.260;2023-09-19T00:27:50;1.33;;;0.90;;
48205;SDS011;33995;48.202;16.260;2023-09-19T00:30:27;0.80;;;0.70;;
48205;SDS011;33995;48.202;16.260;2023-09-19T00:32:58;1.20;;;0.87;;
48205;SDS011;33995;48.202;16.260;2023-09-19T00:35:28;1.97;;;1.00;;
48205;SDS011;33995;48.202;16.260;2023-09-19T00:37:57;2.23;;;1.07;;
48205;SDS011;33995;48.202;16.260;2023-09-19T00:40:28;0.83;;;0.60;;
48205;SDS011;33995;48.202;16.260;2023-09-19T00:43:00;1.00;;;0.60;;
48205;SDS011;33995;48.202;16.260;2023-09-19T00:45:31;1.20;;;0.63;;
48205;SDS011;33995;48.202;16.260;2023-09-19T00:48:02;1.23;;;0.70;;
48205;SDS011;33995;48.202;16.260;2023-09-19T00:50:37;1.10;;;0.70;;
48205;SDS011;33995;48.202;16.260;2023-09-19T00:53:14;2.17;;;0.70;;
48205;SDS011;33995;48.202;16.260;2023-09-19T00:55:49;1.97;;;0.90;;
48205;SDS011;33995;48.202;16.260;2023-09-19T00:58:23;2.33;;;0.80;;
48205;SDS011;33995;48.202;16.260;2023-09-19T01:00:52;1.90;;;0.90;;
48205;SDS011;33995;48.202;16.260;2023-09-19T01:03:21;2.13;;;0.87;;
48205;SDS011;33995;48.202;16.260;2023-09-19T01:05:53;1.90;;;0.77;;
48205;SDS011;33995;48.202;16.260;2023-09-19T01:08:25;1.53;;;0.70;;
48205;SDS011;33995;48.202;16.260;2023-09-19T01:11:01;2.50;;;1.03;;
48205;SDS011;33995;48.202;16.260;2023-09-19T01:17:00;1.30;;;0.80;;
48205;SDS011;33995;48.202;16.260;2023-09-19T01:22:59;1.07;;;0.83;;
48205;SDS011;33995;48.202;16.260;2023-09-19T01:31:44;1.33;;;0.80;;
48205;SDS011;33995;48.202;16.260;2023-09-19T01:34:26;1.43;;;0.80;;
48205;SDS011;33995;48.202;16.260;2023-09-19T01:36:57;1.73;;;0.90;;
48205;SDS011;33995;48.202;16.260;2023-09-19T01:39:26;1.23;;;0.90;;
48205;SDS011;33995;48.202;16.260;2023-09-19T01:41:58;2.70;;;1.00;;
48205;SDS011;33995;48.202;16.260;2023-09-19T01:44:57;1.33;;;1.10;;
48205;SDS011;33995;48.202;16.260;2023-09-19T01:47:49;1.93;;;1.13;;
48205;SDS011;33995;48.202;16.260;2023-09-19T01:56:04;3.10;;;1.10;;
48205;SDS011;33995;48.202;16.260;2023-09-19T02:01:33;2.10;;;1.07;;
48205;SDS011;33995;48.202;16.260;2023-09-19T02:04:14;3.00;;;1.33;;
48205;SDS011;33995;48.202;16.260;2023-09-19T02:07:07;2.20;;;1.10;;
48205;SDS011;33995;48.202;16.260;2023-09-19T02:09:37;3.87;;;1.40;;
48205;SDS011;33995;48.202;16.260;2023-09-19T02:12:11;1.87;;;1.10;;
48205;SDS011;33995;48.202;16.260;2023-09-19T02:14:45;3.00;;;1.10;;
48205;SDS011;33995;48.202;16.260;2023-09-19T02:17:15;2.90;;;1.13;;
48205;SDS011;33995;48.202;16.260;2023-09-19T02:19:45;2.07;;;1.10;;
48205;SDS011;33995;48.202;16.260;2023-09-19T02:22:14;2.03;;;1.00;;
48205;SDS011;33995;48.202;16.260;2023-09-19T02:24:44;3.07;;;1.10;;
48205;SDS011;33995;48.202;16.260;2023-09-19T02:27:20;2.07;;;0.90;;
48205;SDS011;33995;48.202;16.260;2023-09-19T02:29:48;2.50;;;0.87;;
48205;SDS011;33995;48.202;16.260;2023-09-19T02:32:23;1.20;;;1.10;;
48205;SDS011;33995;48.202;16.260;2023-09-19T02:34:52;3.23;;;1.13;;
48205;SDS011;33995;48.202;16.260;2023-09-19T02:37:31;1.43;;;0.87;;
48205;SDS011;33995;48.202;16.260;2023-09-19T02:40:10;1.50;;;1.00;;
48205;SDS011;33995;48.202;16.260;2023-09-19T02:45:38;2.03;;;1.13;;
48205;SDS011;33995;48.202;16.260;2023-09-19T02:48:09;1.57;;;0.80;;
48205;SDS011;33995;48.202;16.260;2023-09-19T02:50:53;1.90;;;0.60;;
48205;SDS011;33995;48.202;16.260;2023-09-19T02:53:23;1.60;;;0.90;;
48205;SDS011;33995;48.202;16.260;2023-09-19T02:55:55;1.50;;;0.80;;
48205;SDS011;33995;48.202;16.260;2023-09-19T02:58:26;2.10;;;1.10;;
48205;SDS011;33995;48.202;16.260;2023-09-19T03:01:09;1.67;;;0.97;;
48205;SDS011;33995;48.202;16.260;2023-09-19T03:03:42;1.03;;;0.87;;
48205;SDS011;33995;48.202;16.260;2023-09-19T03:06:15;1.67;;;1.00;;
48205;SDS011;33995;48.202;16.260;2023-09-19T03:08:52;1.57;;;1.20;;
48205;SDS011;33995;48.202;16.260;2023-09-19T03:11:22;2.20;;;1.20;;
48205;SDS011;33995;48.202;16.260;2023-09-19T03:13:57;2.07;;;1.10;;
48205;SDS011;33995;48.202;16.260;2023-09-19T03:16:29;2.27;;;1.13;;
48205;SDS011;33995;48.202;16.260;2023-09-19T03:19:01;1.77;;;1.50;;
48205;SDS011;33995;48.202;16.260;2023-09-19T03:21:33;1.90;;;1.30;;
48205;SDS011;33995;48.202;16.260;2023-09-19T03:24:05;1.00;;;0.90;;
48205;SDS011;33995;48.202;16.260;2023-09-19T03:26:38;3.17;;;1.47;;
48205;SDS011;33995;48.202;16.260;2023-09-19T03:29:15;2.80;;;1.20;;
48205;SDS011;33995;48.202;16.260;2023-09-19T03:31:48;2.70;;;1.20;;
48205;SDS011;33995;48.202;16.260;2023-09-19T03:34:17;1.20;;;1.10;;
48205;SDS011;33995;48.202;16.260;2023-09-19T03:36:54;1.30;;;1.10;;
48205;SDS011;33995;48.202;16.260;2023-09-19T03:39:25;3.20;;;1.30;;
48205;SDS011;33995;48.202;16.260;2023-09-19T03:41:57;1.47;;;1.10;;
48205;SDS011;33995;48.202;16.260;2023-09-19T03:44:26;2.00;;;1.10;;
48205;SDS011;33995;48.202;16.260;2023-09-19T03:46:54;1.57;;;1.17;;
48205;SDS011;33995;48.202;16.260;2023-09-19T03:49:31;2.23;;;1.60;;
48205;SDS011;33995;48.202;16.260;2023-09-19T03:52:02;1.47;;;1.30;;
48205;SDS011;33995;48.202;16.260;2023-09-19T03:54:30;2.13;;;1.30;;
48205;SDS011;33995;48.202;16.260;2023-09-19T03:57:01;2.10;;;1.40;;
48205;SDS011;33995;48.202;16.260;2023-09-19T03:59:38;1.93;;;1.40;;
48205;SDS011;33995;48.202;16.260;2023-09-19T04:02:11;2.20;;;1.30;;
48205;SDS011;33995;48.202;16.260;2023-09-19T04:04:55;1.93;;;1.40;;
48205;SDS011;33995;48.202;16.260;2023-09-19T04:07:25;2.03;;;1.30;;
48205;SDS011;33995;48.202;16.260;2023-09-19T04:09:57;2.03;;;1.50;;
48205;SDS011;33995;48.202;16.260;2023-09-19T04:12:27;1.87;;;1.60;;
48205;SDS011;33995;48.202;16.260;2023-09-19T04:15:02;2.30;;;1.37;;
48205;SDS011;33995;48.202;16.260;2023-09-19T04:17:35;3.10;;;1.50;;
48205;SDS011;33995;48.202;16.260;2023-09-19T04:20:07;1.70;;;1.50;;
48205;SDS011;33995;48.202;16.260;2023-09-19T04:22:36;2.67;;;1.70;;
48205;SDS011;33995;48.202;16.260;2023-09-19T04:25:06;3.37;;;1.60;;
48205;SDS011;33995;48.202;16.260;2023-09-19T04:27:39;3.93;;;1.80;;
48205;SDS011;33995;48.202;16.260;2023-09-19T04:30:11;1.50;;;1.40;;
48205;SDS011;33995;48.202;16.260;2023-09-19T04:32:45;2.00;;;1.70;;
48205;SDS011;33995;48.202;16.260;2023-09-19T04:35:21;1.83;;;1.57;;
48205;SDS011;33995;48.202;16.260;2023-09-19T04:37:51;2.00;;;1.60;;
48205;SDS011;33995;48.202;16.260;2023-09-19T04:40:25;1.83;;;1.50;;
48205;SDS011;33995;48.202;16.260;2023-09-19T04:43:00;2.53;;;1.63;;
48205;SDS011;33995;48.202;16.260;2023-09-19T04:45:31;2.00;;;1.70;;
48205;SDS011;33995;48.202;16.260;2023-09-19T04:48:13;2.70;;;1.67;;
48205;SDS011;33995;48.202;16.260;2023-09-19T04:50:43;1.80;;;1.60;;
48205;SDS011;33995;48.202;16.260;2023-09-19T04:53:14;1.87;;;1.67;;
48205;SDS011;33995;48.202;16.260;2023-09-19T04:55:44;2.57;;;1.57;;
48205;SDS011;33995;48.202;16.260;2023-09-19T04:58:12;3.37;;;2.00;;
48205;SDS011;33995;48.202;16.260;2023-09-19T05:00:40;2.30;;;1.90;;
48205;SDS011;33995;48.202;16.260;2023-09-19T05:03:08;2.57;;;1.93;;
48205;SDS011;33995;48.202;16.260;2023-09-19T05:05:36;3.30;;;2.10;;
48205;SDS011;33995;48.202;16.260;2023-09-19T05:08:07;2.27;;;1.80;;
48205;SDS011;33995;48.202;16.260;2023-09-19T05:10:39;3.00;;;1.83;;
48205;SDS011;33995;48.202;16.260;2023-09-19T05:13:11;4.60;;;2.37;;
48205;SDS011;33995;48.202;16.260;2023-09-19T05:15:42;3.20;;;2.20;;
48205;SDS011;33995;48.202;16.260;2023-09-19T05:18:14;2.47;;;2.00;;
48205;SDS011;33995;48.202;16.260;2023-09-19T05:20:46;2.33;;;2.07;;
48205;SDS011;33995;48.202;16.260;2023-09-19T05:23:14;2.10;;;1.90;;
48205;SDS011;33995;48.202;16.260;2023-09-19T05:25:47;3.23;;;2.50;;
48205;SDS011;33995;48.202;16.260;2023-09-19T05:28:28;3.23;;;2.20;;
48205;SDS011;33995;48.202;16.260;2023-09-19T05:31:03;3.60;;;2.30;;
48205;SDS011;33995;48.202;16.260;2023-09-19T05:33:39;3.50;;;2.30;;
48205;SDS011;33995;48.202;16.260;2023-09-19T05:36:09;5.87;;;2.80;;
48205;SDS011;33995;48.202;16.260;2023-09-19T05:38:53;4.67;;;2.73;;
48205;SDS011;33995;48.202;16.260;2023-09-19T05:41:21;3.60;;;2.20;;
48205;SDS011;33995;48.202;16.260;2023-09-19T05:43:53;3.50;;;2.10;;
48205;SDS011;33995;48.202;16.260;2023-09-19T05:46:22;3.53;;;2.20;;
48205;SDS011;33995;48.202;16.260;2023-09-19T05:48:55;3.57;;;2.47;;
48205;SDS011;33995;48.202;16.260;2023-09-19T05:51:28;2.73;;;2.10;;
48205;SDS011;33995;48.202;16.260;2023-09-19T05:53:58;3.00;;;2.30;;
48205;SDS011;33995;48.202;16.260;2023-09-19T05:56:27;3.17;;;2.03;;
48205;SDS011;33995;48.202;16.260;2023-09-19T05:58:57;4.73;;;2.40;;
48205;SDS011;33995;48.202;16.260;2023-09-19T06:01:28;3.27;;;2.57;;
48205;SDS011;33995;48.202;16.260;2023-09-19T06:04:03;3.70;;;2.50;;
48205;SDS011;33995;48.202;16.260;2023-09-19T06:06:32;3.03;;;2.30;;
48205;SDS011;33995;48.202;16.260;2023-09-19T06:09:15;4.00;;;2.50;;
48205;SDS011;33995;48.202;16.260;2023-09-19T06:11:43;2.77;;;2.27;;
48205;SDS011;33995;48.202;16.260;2023-09-19T06:14:12;2.77;;;2.00;;
48205;SDS011;33995;48.202;16.260;2023-09-19T06:16:41;3.73;;;2.40;;
48205;SDS011;33995;48.202;16.260;2023-09-19T06:19:14;4.60;;;2.30;;
48205;SDS011;33995;48.202;16.260;2023-09-19T06:21:42;4.63;;;2.40;;
48205;SDS011;33995;48.202;16.260;2023-09-19T06:24:16;3.90;;;2.20;;
48205;SDS011;33995;48.202;16.260;2023-09-19T06:26:46;4.03;;;2.33;;
48205;SDS011;33995;48.202;16.260;2023-09-19T06:29:20;3.13;;;2.30;;
48205;SDS011;33995;48.202;16.260;2023-09-19T06:31:50;5.43;;;2.20;;
48205;SDS011;33995;48.202;16.260;2023-09-19T06:34:26;3.27;;;2.73;;
48205;SDS011;33995;48.202;16.260;2023-09-19T06:36:58;3.40;;;2.50;;
48205;SDS011;33995;48.202;16.260;2023-09-19T06:39:32;4.00;;;2.60;;
48205;SDS011;33995;48.202;16.260;2023-09-19T06:42:02;4.23;;;2.20;;
48205;SDS011;33995;48.202;16.260;2023-09-19T06:44:36;4.73;;;2.40;;
48205;SDS011;33995;48.202;16.260;2023-09-19T06:47:10;4.73;;;2.23;;
48205;SDS011;33995;48.202;16.260;2023-09-19T06:49:45;4.97;;;2.50;;
48205;SDS011;33995;48.202;16.260;2023-09-19T06:52:15;2.37;;;2.07;;
48205;SDS011;33995;48.202;16.260;2023-09-19T06:54:45;3.50;;;2.33;;
48205;SDS011;33995;48.202;16.260;2023-09-19T06:57:13;2.97;;;2.20;;
48205;SDS011;33995;48.202;16.260;2023-09-19T06:59:48;4.53;;;2.23;;
48205;SDS011;33995;48.202;16.260;2023-09-19T07:02:19;2.70;;;2.17;;
48205;SDS011;33995;48.202;16.260;2023-09-19T07:04:52;3.07;;;2.07;;
48205;SDS011;33995;48.202;16.260;2023-09-19T07:07:25;2.83;;;2.03;;
48205;SDS011;33995;48.202;16.260;2023-09-19T07:09:57;2.77;;;2.20;;
48205;SDS011;33995;48.202;16.260;2023-09-19T07:12:28;2.93;;;2.03;;
48205;SDS011;33995;48.202;16.260;2023-09-19T07:15:05;4.07;;;2.40;;
48205;SDS011;33995;48.202;16.260;2023-09-19T07:17:36;2.50;;;2.27;;
48205;SDS011;33995;48.202;16.260;2023-09-19T07:20:11;2.23;;;2.00;;
48205;SDS011;33995;48.202;16.260;2023-09-19T07:22:51;5.90;;;2.30;;
48205;SDS011;33995;48.202;16.260;2023-09-19T07:25:29;3.43;;;2.20;;
48205;SDS011;33995;48.202;16.260;2023-09-19T07:27:58;2.30;;;2.10;;
48205;SDS011;33995;48.202;16.260;2023-09-19T07:30:30;2.60;;;2.03;;
48205;SDS011;33995;48.202;16.260;2023-09-19T07:33:07;3.80;;;2.00;;
48205;SDS011;33995;48.202;16.260;2023-09-19T07:35:38;3.33;;;2.00;;
48205;SDS011;33995;48.202;16.260;2023-09-19T07:38:11;2.73;;;2.20;;
48205;SDS011;33995;48.202;16.260;2023-09-19T07:40:39;3.00;;;2.23;;
48205;SDS011;33995;48.202;16.260;2023-09-19T07:43:11;3.00;;;2.00;;
48205;SDS011;33995;48.202;16.260;2023-09-19T07:45:39;2.50;;;2.10;;
48205;SDS011;33995;48.202;16.260;2023-09-19T07:48:12;3.57;;;2.17;;
48205;SDS011;33995;48.202;16.260;2023-09-19T07:50:46;2.87;;;2.03;;
48205;SDS011;33995;48.202;16.260;2023-09-19T07:53:16;2.63;;;2.07;;
48205;SDS011;33995;48.202;16.260;2023-09-19T07:55:48;2.30;;;2.00;;
48205;SDS011;33995;48.202;16.260;2023-09-19T07:58:16;3.30;;;2.20;;
48205;SDS011;33995;48.202;16.260;2023-09-19T08:00:47;3.17;;;2.20;;
48205;SDS011;33995;48.202;16.260;2023-09-19T08:03:18;2.40;;;2.13;;
48205;SDS011;33995;48.202;16.260;2023-09-19T08:05:49;2.73;;;2.37;;
48205;SDS011;33995;48.202;16.260;2023-09-19T08:08:20;3.07;;;2.10;;
48205;SDS011;33995;48.202;16.260;2023-09-19T08:10:53;2.57;;;2.03;;
48205;SDS011;33995;48.202;16.260;2023-09-19T08:13:24;2.87;;;2.10;;
48205;SDS011;33995;48.202;16.260;2023-09-19T08:15:52;3.07;;;2.23;;
48205;SDS011;33995;48.202;16.260;2023-09-19T08:18:24;2.80;;;1.97;;
48205;SDS011;33995;48.202;16.260;2023-09-19T08:20:56;2.80;;;2.10;;
48205;SDS011;33995;48.202;16.260;2023-09-19T08:23:31;2.77;;;2.10;;
48205;SDS011;33995;48.202;16.260;2023-09-19T08:26:02;3.33;;;2.10;;
48205;SDS011;33995;48.202;16.260;2023-09-19T08:28:37;3.10;;;2.07;;
48205;SDS011;33995;48.202;16.260;2023-09-19T08:31:11;2.63;;;2.27;;
48205;SDS011;33995;48.202;16.260;2023-09-19T08:33:42;3.87;;;2.20;;
48205;SDS011;33995;48.202;16.260;2023-09-19T08:36:16;2.30;;;2.00;;
48205;SDS011;33995;48.202;16.260;2023-09-19T08:38:46;3.20;;;2.30;;
48205;SDS011;33995;48.202;16.260;2023-09-19T08:41:19;3.00;;;2.00;;
48205;SDS011;33995;48.202;16.260;2023-09-19T08:43:48;3.00;;;2.20;;
48205;SDS011;33995;48.202;16.260;2023-09-19T08:46:21;2.50;;;2.07;;
48205;SDS011;33995;48.202;16.260;2023-09-19T08:49:03;2.23;;;2.03;;
48205;SDS011;33995;48.202;16.260;2023-09-19T08:51:43;3.50;;;2.40;;
48205;SDS011;33995;48.202;16.260;2023-09-19T08:54:38;3.43;;;2.00;;
48205;SDS011;33995;48.202;16.260;2023-09-19T08:57:08;2.40;;;2.00;;
48205;SDS011;33995;48.202;16.260;2023-09-19T08:59:39;2.83;;;1.90;;
48205;SDS011;33995;48.202;16.260;2023-09-19T09:02:10;2.13;;;1.83;;
48205;SDS011;33995;48.202;16.260;2023-09-19T09:04:43;3.00;;;2.30;;
48205;SDS011;33995;48.202;16.260;2023-09-19T09:07:15;2.17;;;1.97;;
48205;SDS011;33995;48.202;16.260;2023-09-19T09:09:46;2.20;;;2.00;;
48205;SDS011;33995;48.202;16.260;2023-09-19T09:12:15;2.50;;;1.97;;
48205;SDS011;33995;48.202;16.260;2023-09-19T09:14:45;3.63;;;2.07;;
48205;SDS011;33995;48.202;16.260;2023-09-19T09:17:22;2.33;;;1.83;;
48205;SDS011;33995;48.202;16.260;2023-09-19T09:19:57;3.77;;;1.90;;
48205;SDS011;33995;48.202;16.260;2023-09-19T09:22:30;1.90;;;1.70;;
48205;SDS011;33995;48.202;16.260;2023-09-19T09:25:04;3.10;;;2.10;;
48205;SDS011;33995;48.202;16.260;2023-09-19T09:27:37;2.53;;;1.80;;
48205;SDS011;33995;48.202;16.260;2023-09-19T09:30:32;3.63;;;2.20;;
48205;SDS011;33995;48.202;16.260;2023-09-19T09:33:14;2.50;;;1.73;;
48205;SDS011;33995;48.202;16.260;2023-09-19T09:35:49;2.40;;;2.07;;
48205;SDS011;33995;48.202;16.260;2023-09-19T09:39:02;3.10;;;1.87;;
48205;SDS011;33995;48.202;16.260;2023-09-19T09:41:44;2.80;;;1.90;;
48205;SDS011;33995;48.202;16.260;2023-09-19T09:44:17;2.90;;;2.17;;
48205;SDS011;33995;48.202;16.260;2023-09-19T09:46:49;2.27;;;2.00;;
48205;SDS011;33995;48.202;16.260;2023-09-19T09:49:23;2.67;;;1.93;;
48205;SDS011;33995;48.202;16.260;2023-09-19T09:52:13;2.63;;;2.10;;
48205;SDS011;33995;48.202;16.260;2023-09-19T09:54:59;2.67;;;2.10;;
48205;SDS011;33995;48.202;16.260;2023-09-19T09:57:34;3.63;;;1.93;;
48205;SDS011;33995;48.202;16.260;2023-09-19T10:00:07;1.93;;;1.77;;
48205;SDS011;33995;48.202;16.260;2023-09-19T10:03:56;2.70;;;1.80;;
48205;SDS011;33995;48.202;16.260;2023-09-19T10:06:07;2.97;;;2.00;;
48205;SDS011;33995;48.202;16.260;2023-09-19T10:09:09;3.27;;;1.90;;
48205;SDS011;33995;48.202;16.260;2023-09-19T10:12:07;2.17;;;1.90;;
48205;SDS011;33995;48.202;16.260;2023-09-19T10:14:42;2.53;;;1.90;;
48205;SDS011;33995;48.202;16.260;2023-09-19T10:17:19;2.60;;;2.00;;
48205;SDS011;33995;48.202;16.260;2023-09-19T10:19:58;2.23;;;1.90;;
48205;SDS011;33995;48.202;16.260;2023-09-19T10:22:39;3.03;;;2.17;;
48205;SDS011;33995;48.202;16.260;2023-09-19T10:25:10;2.93;;;1.90;;
48205;SDS011;33995;48.202;16.260;2023-09-19T10:27:44;2.80;;;2.17;;
48205;SDS011;33995;48.202;16.260;2023-09-19T10:30:13;2.33;;;2.10;;
48205;SDS011;33995;48.202;16.260;2023-09-19T10:32:47;2.10;;;1.90;;
48205;SDS011;33995;48.202;16.260;2023-09-19T10:35:26;2.93;;;1.90;;
48205;SDS011;33995;48.202;16.260;2023-09-19T10:38:03;2.90;;;2.00;;
48205;SDS011;33995;48.202;16.260;2023-09-19T10:40:56;3.20;;;2.00;;
48205;SDS011;33995;48.202;16.260;2023-09-19T10:43:39;2.77;;;1.90;;
48205;SDS011;33995;48.202;16.260;2023-09-19T10:46:13;2.03;;;1.83;;
48205;SDS011;33995;48.202;16.260;2023-09-19T10:48:42;2.30;;;2.10;;
48205;SDS011;33995;48.202;16.260;2023-09-19T10:51:19;3.03;;;1.90;;
48205;SDS011;33995;48.202;16.260;2023-09-19T10:54:07;2.23;;;1.73;;
48205;SDS011;33995;48.202;16.260;2023-09-19T10:56:48;2.30;;;2.10;;
48205;SDS011;33995;48.202;16.260;2023-09-19T10:59:28;2.23;;;2.03;;
48205;SDS011;33995;48.202;16.260;2023-09-19T11:02:20;3.70;;;2.10;;
48205;SDS011;33995;48.202;16.260;2023-09-19T11:04:56;2.40;;;2.07;;
48205;SDS011;33995;48.202;16.260;2023-09-19T11:07:58;2.97;;;1.90;;
48205;SDS011;33995;48.202;16.260;2023-09-19T11:10:50;2.80;;;1.90;;
48205;SDS011;33995;48.202;16.260;2023-09-19T11:13:30;2.57;;;1.77;;
48205;SDS011;33995;48.202;16.260;2023-09-19T11:16:04;2.73;;;2.10;;
48205;SDS011;33995;48.202;16.260;2023-09-19T11:27:08;3.20;;;2.00;;
48205;SDS011;33995;48.202;16.260;2023-09-19T11:29:41;2.60;;;1.90;;
48205;SDS011;33995;48.202;16.260;2023-09-19T11:32:11;3.40;;;1.87;;
48205;SDS011;33995;48.202;16.260;2023-09-19T11:34:50;2.13;;;1.80;;
48205;SDS011;33995;48.202;16.260;2023-09-19T11:40:35;4.10;;;1.70;;
48205;SDS011;33995;48.202;16.260;2023-09-19T11:43:27;2.40;;;1.70;;
48205;SDS011;33995;48.202;16.260;2023-09-19T11:48:33;2.67;;;1.63;;
48205;SDS011;33995;48.202;16.260;2023-09-19T11:51:12;1.80;;;1.70;;
48205;SDS011;33995;48.202;16.260;2023-09-19T11:53:58;2.73;;;1.67;;
48205;SDS011;33995;48.202;16.260;2023-09-19T11:56:28;1.70;;;1.50;;
48205;SDS011;33995;48.202;16.260;2023-09-19T11:59:02;2.10;;;1.60;;
48205;SDS011;33995;48.202;16.260;2023-09-19T12:01:35;2.23;;;1.70;;
48205;SDS011;33995;48.202;16.260;2023-09-19T12:04:18;3.17;;;1.60;;
48205;SDS011;33995;48.202;16.260;2023-09-19T12:07:10;2.60;;;1.57;;
48205;SDS011;33995;48.202;16.260;2023-09-19T12:09:48;2.40;;;1.60;;
48205;SDS011;33995;48.202;16.260;2023-09-19T12:12:20;2.10;;;1.57;;
48205;SDS011;33995;48.202;16.260;2023-09-19T12:14:56;1.50;;;1.40;;
48205;SDS011;33995;48.202;16.260;2023-09-19T12:17:36;1.60;;;1.50;;
48205;SDS011;33995;48.202;16.260;2023-09-19T12:20:13;2.33;;;1.60;;
48205;SDS011;33995;48.202;16.260;2023-09-19T12:22:43;2.43;;;1.40;;
48205;SDS011;33995;48.202;16.260;2023-09-19T12:25:18;1.50;;;1.40;;
48205;SDS011;33995;48.202;16.260;2023-09-19T12:27:58;3.43;;;1.47;;
48205;SDS011;33995;48.202;16.260;2023-09-19T12:30:30;1.90;;;1.40;;
48205;SDS011;33995;48.202;16.260;2023-09-19T12:33:18;1.73;;;1.40;;
48205;SDS011;33995;48.202;16.260;2023-09-19T12:36:00;1.50;;;1.40;;
48205;SDS011;33995;48.202;16.260;2023-09-19T12:38:59;1.80;;;1.50;;
48205;SDS011;33995;48.202;16.260;2023-09-19T12:41:40;1.40;;;1.30;;
48205;SDS011;33995;48.202;16.260;2023-09-19T12:44:18;1.57;;;1.47;;
48205;SDS011;33995;48.202;16.260;2023-09-19T12:46:47;1.60;;;1.30;;
48205;SDS011;33995;48.202;16.260;2023-09-19T12:49:18;1.50;;;1.40;;
48205;SDS011;33995;48.202;16.260;2023-09-19T12:51:47;1.73;;;1.33;;
48205;SDS011;33995;48.202;16.260;2023-09-19T12:54:18;2.00;;;1.80;;
48205;SDS011;33995;48.202;16.260;2023-09-19T12:56:50;2.13;;;1.60;;
48205;SDS011;33995;48.202;16.260;2023-09-19T12:59:29;1.50;;;1.27;;
48205;SDS011;33995;48.202;16.260;2023-09-19T13:02:08;2.30;;;1.50;;
48205;SDS011;33995;48.202;16.260;2023-09-19T13:04:57;2.83;;;1.70;;
48205;SDS011;33995;48.202;16.260;2023-09-19T13:07:40;3.20;;;1.40;;
48205;SDS011;33995;48.202;16.260;2023-09-19T13:10:17;1.87;;;1.30;;
48205;SDS011;33995;48.202;16.260;2023-09-19T13:12:55;1.87;;;1.50;;
48205;SDS011;33995;48.202;16.260;2023-09-19T13:15:56;1.63;;;1.37;;
48205;SDS011;33995;48.202;16.260;2023-09-19T13:18:30;1.30;;;1.20;;
48205;SDS011;33995;48.202;16.260;2023-09-19T13:21:16;1.50;;;1.30;;
48205;SDS011;33995;48.202;16.260;2023-09-19T13:24:19;1.27;;;1.17;;
48205;SDS011;33995;48.202;16.260;2023-09-19T13:26:59;3.20;;;1.30;;
48205;SDS011;33995;48.202;16.260;2023-09-19T13:29:30;3.97;;;1.43;;
48205;SDS011;33995;48.202;16.260;2023-09-19T13:32:07;2.60;;;1.20;;
48205;SDS011;33995;48.202;16.260;2023-09-19T13:34:41;1.60;;;1.37;;
48205;SDS011;33995;48.202;16.260;2023-09-19T13:37:11;1.87;;;1.30;;
48205;SDS011;33995;48.202;16.260;2023-09-19T13:39:43;1.87;;;1.30;;
48205;SDS011;33995;48.202;16.260;2023-09-19T13:42:15;1.30;;;1.20;;
48205;SDS011;33995;48.202;16.260;2023-09-19T13:44:46;1.50;;;1.23;;
48205;SDS011;33995;48.202;16.260;2023-09-19T13:47:27;1.50;;;1.30;;
48205;SDS011;33995;48.202;16.260;2023-09-19T13:49:58;1.40;;;1.30;;
48205;SDS011;33995;48.202;16.260;2023-09-19T13:52:35;2.57;;;1.30;;
48205;SDS011;33995;48.202;16.260;2023-09-19T13:55:15;1.30;;;1.20;;
48205;SDS011;33995;48.202;16.260;2023-09-19T13:57:50;1.30;;;1.20;;
48205;SDS011;33995;48.202;16.260;2023-09-19T14:00:23;1.90;;;1.43;;
48205;SDS011;33995;48.202;16.260;2023-09-19T14:02:54;1.50;;;1.40;;
48205;SDS011;33995;48.202;16.260;2023-09-19T14:05:25;1.80;;;1.20;;
48205;SDS011;33995;48.202;16.260;2023-09-19T14:08:09;1.87;;;1.50;;
48205;SDS011;33995;48.202;16.260;2023-09-19T14:10:40;1.50;;;1.30;;
48205;SDS011;33995;48.202;16.260;2023-09-19T14:13:10;1.40;;;1.10;;
48205;SDS011;33995;48.202;16.260;2023-09-19T14:15:47;1.43;;;1.30;;
48205;SDS011;33995;48.202;16.260;2023-09-19T14:18:18;1.80;;;1.20;;
48205;SDS011;33995;48.202;16.260;2023-09-19T14:20:50;1.57;;;1.30;;
48205;SDS011;33995;48.202;16.260;2023-09-19T14:23:25;3.07;;;1.50;;
48205;SDS011;33995;48.202;16.260;2023-09-19T14:26:00;1.47;;;1.30;;
48205;SDS011;33995;48.202;16.260;2023-09-19T14:28:35;2.17;;;1.40;;
48205;SDS011;33995;48.202;16.260;2023-09-19T14:31:11;1.10;;;1.00;;
48205;SDS011;33995;48.202;16.260;2023-09-19T14:33:45;2.93;;;1.50;;
48205;SDS011;33995;48.202;16.260;2023-09-19T14:36:22;2.00;;;1.60;;
48205;SDS011;33995;48.202;16.260;2023-09-19T14:38:52;1.80;;;1.23;;
48205;SDS011;33995;48.202;16.260;2023-09-19T14:41:33;1.33;;;1.13;;
48205;SDS011;33995;48.202;16.260;2023-09-19T14:44:06;3.07;;;1.30;;
48205;SDS011;33995;48.202;16.260;2023-09-19T14:46:42;1.87;;;1.30;;
48205;SDS011;33995;48.202;16.260;2023-09-19T14:49:16;1.47;;;1.37;;
48205;SDS011;33995;48.202;16.260;2023-09-19T14:51:45;1.53;;;1.40;;
48205;SDS011;33995;48.202;16.260;2023-09-19T14:54:17;1.80;;;1.43;;
48205;SDS011;33995;48.202;16.260;2023-09-19T14:56:47;1.77;;;1.40;;
48205;SDS011;33995;48.202;16.260;2023-09-19T14:59:24;2.80;;;2.20;;
48205;SDS011;33995;48.202;16.260;2023-09-19T15:01:59;2.70;;;2.50;;
48205;SDS011;33995;48.202;16.260;2023-09-19T15:04:29;1.80;;;1.70;;
48205;SDS011;33995;48.202;16.260;2023-09-19T15:07:03;3.10;;;1.70;;
48205;SDS011;33995;48.202;16.260;2023-09-19T15:09:38;2.00;;;1.80;;
48205;SDS011;33995;48.202;16.260;2023-09-19T15:12:11;2.07;;;1.60;;
48205;SDS011;33995;48.202;16.260;2023-09-19T15:14:42;1.90;;;1.47;;
48205;SDS011;33995;48.202;16.260;2023-09-19T15:17:19;2.63;;;1.60;;
48205;SDS011;33995;48.202;16.260;2023-09-19T15:19:59;1.50;;;1.40;;
48205;SDS011;33995;48.202;16.260;2023-09-19T15:22:33;1.83;;;1.33;;
48205;SDS011;33995;48.202;16.260;2023-09-19T15:25:06;2.87;;;1.40;;
48205;SDS011;33995;48.202;16.260;2023-09-19T15:27:38;2.80;;;1.60;;
48205;SDS011;33995;48.202;16.260;2023-09-19T15:30:12;1.70;;;1.40;;
48205;SDS011;33995;48.202;16.260;2023-09-19T15:32:53;1.67;;;1.50;;
48205;SDS011;33995;48.202;16.260;2023-09-19T15:35:24;1.63;;;1.50;;
48205;SDS011;33995;48.202;16.260;2023-09-19T15:37:57;2.03;;;1.50;;
48205;SDS011;33995;48.202;16.260;2023-09-19T15:40:35;1.70;;;1.33;;
48205;SDS011;33995;48.202;16.260;2023-09-19T15:43:17;1.57;;;1.13;;
48205;SDS011;33995;48.202;16.260;2023-09-19T15:46:05;2.63;;;1.40;;
48205;SDS011;33995;48.202;16.260;2023-09-19T15:48:56;1.93;;;1.40;;
48205;SDS011;33995;48.202;16.260;2023-09-19T15:51:30;2.93;;;1.50;;
48205;SDS011;33995;48.202;16.260;2023-09-19T15:54:11;2.23;;;1.30;;
48205;SDS011;33995;48.202;16.260;2023-09-19T15:56:50;1.40;;;1.20;;
48205;SDS011;33995;48.202;16.260;2023-09-19T15:59:25;1.20;;;1.10;;